createdAt,value
2022-12-01T00:00:22.435Z,23.58
2022-12-01T00:02:48.850Z,20.17
2022-12-01T00:05:15.271Z,23.45
2022-12-01T00:07:41.654Z,20.52
2022-12-01T00:10:25.794Z,20.70
2022-12-01T00:12:57.626Z,26.35
2022-12-01T00:15:27.081Z,23.15
2022-12-01T00:17:53.431Z,22.48
2022-12-01T00:20:19.775Z,18.10
2022-12-01T00:22:47.373Z,19.15
2022-12-01T00:25:15.455Z,22.45
2022-12-01T00:27:42.515Z,21.58
2022-12-01T00:30:11.543Z,29.42
2022-12-01T00:32:37.966Z,21.33
2022-12-01T00:35:05.948Z,23.05
2022-12-01T00:37:33.955Z,22.90
2022-12-01T00:40:00.983Z,23.10
2022-12-01T00:42:27.332Z,21.88
2022-12-01T00:44:54.021Z,24.42
2022-12-01T00:47:20.424Z,27.80
2022-12-01T00:49:47.092Z,24.35
2022-12-01T00:52:14.940Z,23.23
2022-12-01T00:54:41.232Z,21.70
2022-12-01T00:57:08.014Z,27.35
2022-12-01T00:59:35.727Z,21.50
2022-12-01T01:02:06.360Z,22.23
2022-12-01T01:04:35.688Z,25.83
2022-12-01T01:07:02.101Z,24.75
2022-12-01T01:09:28.470Z,21.20
2022-12-01T01:11:55.123Z,24.17
2022-12-01T01:14:24.084Z,24.52
2022-12-01T01:16:50.488Z,25.38
2022-12-01T01:19:17.429Z,24.83
2022-12-01T01:21:43.765Z,26.83
2022-12-01T01:24:10.255Z,22.25
2022-12-01T01:26:37.762Z,25.60
2022-12-01T01:29:07.681Z,24.50
2022-12-01T01:31:34.810Z,22.85
2022-12-01T01:34:01.351Z,23.27
2022-12-01T01:36:27.772Z,27.52
2022-12-01T01:38:55.131Z,25.15
2022-12-01T01:41:22.780Z,25.60
2022-12-01T01:43:52.310Z,29.00
2022-12-01T01:46:19.933Z,26.23
2022-12-01T01:48:52.118Z,25.38
2022-12-01T01:51:24.304Z,27.67
2022-12-01T01:53:54.746Z,26.98
2022-12-01T01:56:22.310Z,30.15
2022-12-01T01:58:49.767Z,30.40
2022-12-01T02:01:16.239Z,28.25
2022-12-01T02:03:43.351Z,24.83
2022-12-01T02:06:11.022Z,30.63
2022-12-01T02:08:38.164Z,29.00
2022-12-01T02:11:14.664Z,26.45
2022-12-01T02:14:08.124Z,30.70
2022-12-01T02:16:55.734Z,25.80
2022-12-01T02:19:52.175Z,26.50
2022-12-01T02:22:40.539Z,23.40
2022-12-01T02:25:18.514Z,30.88
2022-12-01T02:27:47.878Z,24.20
2022-12-01T02:30:18.003Z,27.75
2022-12-01T02:33:04.107Z,27.52
2022-12-01T02:35:43.546Z,26.33
2022-12-01T02:38:13.429Z,25.02
2022-12-01T02:40:45.514Z,26.90
2022-12-01T02:43:27.308Z,28.73
2022-12-01T02:46:15.475Z,26.55
2022-12-01T02:48:46.963Z,33.88
2022-12-01T02:51:19.750Z,30.80
2022-12-01T02:53:46.597Z,24.65
2022-12-01T02:56:16.054Z,37.70
2022-12-01T02:58:43.678Z,27.02
2022-12-01T03:01:50.475Z,29.98
2022-12-01T03:04:22.788Z,28.48
2022-12-01T03:07:15.620Z,28.52
2022-12-01T03:09:57.158Z,30.20
2022-12-01T03:12:35.450Z,30.55
2022-12-01T03:15:10.572Z,26.30
2022-12-01T03:17:49.682Z,29.55
2022-12-01T03:20:41.563Z,30.70
2022-12-01T03:23:12.870Z,31.52
2022-12-01T03:25:44.276Z,35.65
2022-12-01T03:28:21.098Z,31.85
2022-12-01T03:30:52.514Z,28.98
2022-12-01T03:33:43.282Z,27.13
2022-12-01T03:36:19.452Z,28.52
2022-12-01T03:38:52.558Z,28.08
2022-12-01T03:41:27.912Z,28.27
2022-12-01T03:44:03.481Z,33.08
2022-12-01T03:49:03.663Z,31.52
2022-12-01T03:51:50.577Z,29.00
2022-12-01T03:54:28.794Z,29.45
2022-12-01T03:57:02.985Z,29.23
2022-12-01T03:59:31.002Z,27.65
2022-12-01T04:01:58.169Z,29.95
2022-12-01T04:04:24.606Z,28.83
2022-12-01T04:06:51.217Z,27.92
2022-12-01T04:09:17.935Z,26.58
2022-12-01T04:12:02.906Z,26.55
2022-12-01T04:14:30.149Z,30.20
2022-12-01T04:16:56.496Z,28.27
2022-12-01T04:19:22.959Z,29.80
2022-12-01T04:21:49.363Z,24.40
2022-12-01T04:24:15.821Z,31.40
2022-12-01T04:26:43.262Z,32.65
2022-12-01T04:29:11.440Z,28.50
2022-12-01T04:31:38.030Z,27.85
2022-12-01T04:34:04.902Z,28.05
2022-12-01T04:36:33.452Z,31.05
2022-12-01T04:39:00.543Z,28.92
2022-12-01T04:41:27.119Z,25.30
2022-12-01T04:43:54.492Z,29.67
2022-12-01T04:46:22.014Z,26.92
2022-12-01T04:48:48.445Z,29.15
2022-12-01T04:51:14.821Z,31.65
2022-12-01T04:53:41.262Z,26.25
2022-12-01T04:56:07.622Z,26.45
2022-12-01T04:58:37.349Z,31.92
2022-12-01T05:01:10.224Z,23.27
2022-12-01T05:03:41.920Z,27.15
2022-12-01T05:06:14.829Z,29.20
2022-12-01T05:08:41.920Z,28.27
2022-12-01T05:11:11.217Z,28.42
2022-12-01T05:13:43.566Z,29.35
2022-12-01T05:16:15.981Z,27.92
2022-12-01T05:18:42.741Z,25.60
2022-12-01T05:21:11.055Z,25.83
2022-12-01T05:23:38.628Z,33.38
2022-12-01T05:26:07.933Z,28.50
2022-12-01T05:28:35.535Z,27.23
2022-12-01T05:31:02.386Z,26.85
2022-12-01T05:33:29.277Z,25.88
2022-12-01T05:35:55.945Z,28.88
2022-12-01T05:38:22.292Z,28.63
2022-12-01T05:40:53.085Z,29.52
2022-12-01T05:43:25.404Z,29.17
2022-12-01T05:45:55.464Z,28.05
2022-12-01T05:48:21.930Z,26.63
2022-12-01T05:50:48.271Z,30.33
2022-12-01T05:53:14.899Z,31.45
2022-12-01T05:55:41.512Z,28.63
2022-12-01T05:58:08.275Z,27.55
2022-12-01T06:00:35.216Z,28.20
2022-12-01T06:03:02.237Z,26.70
2022-12-01T06:05:28.705Z,28.02
2022-12-01T06:07:55.049Z,27.70
2022-12-01T06:10:21.798Z,26.55
2022-12-01T06:12:48.238Z,28.33
2022-12-01T06:15:14.574Z,29.30
2022-12-01T06:17:40.905Z,27.95
2022-12-01T06:20:09.082Z,25.42
2022-12-01T06:22:35.459Z,26.60
2022-12-01T06:25:01.806Z,28.23
2022-12-01T06:27:28.175Z,26.60
2022-12-01T06:29:54.691Z,28.77
2022-12-01T06:32:21.107Z,24.05
2022-12-01T06:34:47.394Z,25.02
2022-12-01T06:37:15.615Z,26.75
2022-12-01T06:39:42.315Z,26.00
2022-12-01T06:42:08.670Z,25.20
2022-12-01T06:44:35.070Z,32.15
2022-12-01T06:47:01.459Z,28.95
2022-12-01T06:49:27.818Z,24.73
2022-12-01T06:51:54.193Z,24.80
2022-12-01T06:54:21.282Z,23.23
2022-12-01T06:56:47.823Z,23.20
2022-12-01T06:59:14.551Z,21.45
2022-12-01T07:01:41.315Z,20.80
2022-12-01T07:04:07.679Z,25.00
2022-12-01T07:06:34.043Z,23.33
2022-12-01T07:09:00.589Z,23.70
2022-12-01T07:11:26.996Z,24.48
2022-12-01T07:13:56.792Z,22.92
2022-12-01T07:16:23.341Z,25.10
2022-12-01T07:18:50.094Z,24.23
2022-12-01T07:21:17.093Z,22.77
2022-12-01T07:23:43.516Z,27.20
2022-12-01T07:26:15.728Z,21.95
2022-12-01T07:28:42.574Z,24.73
2022-12-01T07:31:10.390Z,23.50
2022-12-01T07:33:37.225Z,23.13
2022-12-01T07:36:04.651Z,22.15
2022-12-01T07:38:32.146Z,23.90
2022-12-01T07:41:10.208Z,20.77
2022-12-01T07:43:36.932Z,23.75
2022-12-01T07:46:21.731Z,23.02
2022-12-01T07:48:48.956Z,24.23
2022-12-01T07:51:16.687Z,23.33
2022-12-01T07:53:44.968Z,19.80
2022-12-01T07:56:11.430Z,23.20
2022-12-01T07:58:37.882Z,25.00
2022-12-01T08:01:07.910Z,21.65
2022-12-01T08:03:34.505Z,20.88
2022-12-01T08:06:05.070Z,20.98
2022-12-01T08:08:33.429Z,20.73
2022-12-01T08:11:02.068Z,19.70
2022-12-01T08:13:28.781Z,22.40
2022-12-01T08:15:55.901Z,21.15
2022-12-01T08:18:22.963Z,20.08
2022-12-01T08:20:50.540Z,28.17
2022-12-01T08:23:16.952Z,20.80
2022-12-01T08:25:43.446Z,18.15
2022-12-01T08:28:09.794Z,20.15
2022-12-01T08:30:36.423Z,21.27
2022-12-01T08:33:03.012Z,21.55
2022-12-01T08:35:29.422Z,18.13
2022-12-01T08:37:55.800Z,18.58
2022-12-01T08:40:22.376Z,18.63
2022-12-01T08:42:48.795Z,19.98
2022-12-01T08:45:15.166Z,22.17
2022-12-01T08:47:41.514Z,20.77
2022-12-01T08:50:08.203Z,18.73
2022-12-01T08:52:34.931Z,18.67
2022-12-01T08:55:01.587Z,18.05
2022-12-01T08:57:31.154Z,18.50
2022-12-01T08:59:57.799Z,18.73
2022-12-01T09:02:24.814Z,18.05
2022-12-01T09:04:51.480Z,17.00
2022-12-01T09:07:24.593Z,16.90
2022-12-01T09:09:52.915Z,18.70
2022-12-01T09:12:19.676Z,17.85
2022-12-01T09:14:48.069Z,17.33
2022-12-01T09:17:15.124Z,14.90
2022-12-01T09:19:42.198Z,16.77
2022-12-01T09:22:09.583Z,17.67
2022-12-01T09:24:36.292Z,20.65
2022-12-01T09:27:03.440Z,19.70
2022-12-01T09:29:30.289Z,15.32
2022-12-01T09:31:58.118Z,18.83
2022-12-01T09:34:24.959Z,18.13
2022-12-01T09:36:56.083Z,18.77
2022-12-01T09:39:22.522Z,18.05
2022-12-01T09:41:56.714Z,15.93
2022-12-01T09:44:51.288Z,18.65
2022-12-01T09:47:36.775Z,16.48
2022-12-01T09:50:11.305Z,17.17
2022-12-01T09:52:45.226Z,18.80
2022-12-01T09:55:13.370Z,15.75
2022-12-01T09:57:40.890Z,19.95
2022-12-01T10:00:14.613Z,16.92
2022-12-01T10:02:47.867Z,18.08
2022-12-01T10:05:21.687Z,16.90
2022-12-01T10:08:03.914Z,16.83
2022-12-01T10:10:34.289Z,21.02
2022-12-01T10:13:00.791Z,15.65
2022-12-01T10:15:32.990Z,16.52
2022-12-01T10:18:20.397Z,16.42
2022-12-01T10:21:07.339Z,14.38
2022-12-01T10:23:45.669Z,15.68
2022-12-01T10:26:26.083Z,14.43
2022-12-01T10:29:16.764Z,14.77
2022-12-01T10:31:52.900Z,16.10
2022-12-01T10:34:27.511Z,14.85
2022-12-01T10:36:54.015Z,14.30
2022-12-01T10:39:28.907Z,16.00
2022-12-01T10:42:06.781Z,14.70
2022-12-01T10:44:34.917Z,12.77
2022-12-01T10:47:03.069Z,13.98
2022-12-01T10:49:41.016Z,16.42
2022-12-01T10:52:23.850Z,14.95
2022-12-01T10:54:50.156Z,15.02
2022-12-01T10:57:19.107Z,17.13
2022-12-01T10:59:53.052Z,14.48
2022-12-01T11:02:22.843Z,14.73
2022-12-01T11:05:01.730Z,15.02
2022-12-01T11:07:45.536Z,14.05
2022-12-01T11:10:20.161Z,13.95
2022-12-01T11:12:55.055Z,14.15
2022-12-01T11:15:32.221Z,13.73
2022-12-01T11:18:01.747Z,15.20
2022-12-01T11:20:37.606Z,14.02
2022-12-01T11:23:10.108Z,14.15
2022-12-01T11:25:36.898Z,15.23
2022-12-01T11:28:04.459Z,15.40
2022-12-01T11:30:32.624Z,15.85
2022-12-01T11:33:04.175Z,15.98
2022-12-01T11:35:36.481Z,15.82
2022-12-01T11:38:28.817Z,18.05
2022-12-01T11:40:55.102Z,17.73
2022-12-01T11:43:29.188Z,18.67
2022-12-01T11:45:58.055Z,16.55
2022-12-01T11:48:34.355Z,17.30
2022-12-01T11:51:18.974Z,19.73
2022-12-01T11:53:45.990Z,19.45
2022-12-01T11:56:30.019Z,18.70
2022-12-01T11:59:01.142Z,16.42
2022-12-01T12:01:42.424Z,22.58
2022-12-01T12:04:33.633Z,18.52
2022-12-01T12:07:17.500Z,21.05
2022-12-01T12:10:02.227Z,22.17
2022-12-01T12:12:53.541Z,20.38
2022-12-01T12:15:23.001Z,18.73
2022-12-01T12:17:59.446Z,22.17
2022-12-01T12:20:31.732Z,20.63
2022-12-01T12:23:29.488Z,19.50
2022-12-01T12:26:28.019Z,21.73
2022-12-01T12:29:15.847Z,22.85
2022-12-01T12:31:55.795Z,20.42
2022-12-01T12:34:59.407Z,21.17
2022-12-01T12:37:53.791Z,20.88
2022-12-01T12:40:38.595Z,23.30
2022-12-01T12:43:23.755Z,20.63
2022-12-01T12:46:01.121Z,18.33
2022-12-01T12:49:12.149Z,24.10
2022-12-01T12:51:35.465Z,21.15
2022-12-01T12:54:20.656Z,21.30
2022-12-01T12:56:52.736Z,26.67
2022-12-01T12:59:28.443Z,22.45
2022-12-01T13:02:15.680Z,23.42
2022-12-01T13:05:17.561Z,20.73
2022-12-01T13:08:04.065Z,26.70
2022-12-01T13:10:42.459Z,22.73
2022-12-01T13:13:20.893Z,23.25
2022-12-01T13:15:50.492Z,21.70
2022-12-01T13:18:25.173Z,38.83
2022-12-01T13:20:53.461Z,25.37
2022-12-01T13:23:21.955Z,26.38
2022-12-01T13:25:53.283Z,24.00
2022-12-01T13:28:27.405Z,21.40
2022-12-01T13:30:59.764Z,22.52
2022-12-01T13:33:26.565Z,26.88
2022-12-01T13:36:15.404Z,20.48
2022-12-01T13:38:41.515Z,20.02
2022-12-01T13:41:21.623Z,24.88
2022-12-01T13:43:56.802Z,22.55
2022-12-01T13:46:35.189Z,28.73
2022-12-01T13:49:03.823Z,29.00
2022-12-01T13:52:08.767Z,25.58
2022-12-01T13:54:36.372Z,31.50
2022-12-01T13:57:10.659Z,23.98
2022-12-01T13:59:58.705Z,22.80
2022-12-01T14:02:28.000Z,21.25
2022-12-01T14:04:54.545Z,26.67
2022-12-01T14:07:35.071Z,20.60
2022-12-01T14:10:25.592Z,19.67
2022-12-01T14:12:55.615Z,23.20
2022-12-01T14:15:37.138Z,19.60
2022-12-01T14:18:08.425Z,21.60
2022-12-01T14:20:43.511Z,20.70
2022-12-01T14:23:24.871Z,19.75
2022-12-01T14:26:19.278Z,20.92
2022-12-01T14:28:54.959Z,18.85
2022-12-01T14:31:23.597Z,25.45
2022-12-01T14:34:04.058Z,22.48
2022-12-01T14:36:40.447Z,23.55
2022-12-01T14:39:17.668Z,24.75
2022-12-01T14:42:11.758Z,22.63
2022-12-01T14:44:47.860Z,22.33
2022-12-01T14:47:42.037Z,21.45
2022-12-01T14:50:25.033Z,19.25
2022-12-01T14:53:01.318Z,18.90
2022-12-01T14:55:34.210Z,19.77
2022-12-01T14:58:14.223Z,20.27
2022-12-01T15:00:55.217Z,20.15
2022-12-01T15:03:27.608Z,18.77
2022-12-01T15:05:56.971Z,18.50
2022-12-01T15:08:58.275Z,20.58
2022-12-01T15:11:25.407Z,20.50
2022-12-01T15:13:54.685Z,17.63
2022-12-01T15:16:23.855Z,18.00
2022-12-01T15:18:50.371Z,16.10
2022-12-01T15:21:24.987Z,18.50
2022-12-01T15:24:03.297Z,15.07
2022-12-01T15:26:47.685Z,16.92
2022-12-01T15:29:22.903Z,19.63
2022-12-01T15:31:53.355Z,18.52
2022-12-01T15:34:33.334Z,16.92
2022-12-01T15:37:02.926Z,19.45
2022-12-01T15:39:35.450Z,18.27
2022-12-01T15:42:02.995Z,20.42
2022-12-01T15:44:35.268Z,19.30
2022-12-01T15:47:49.736Z,19.38
2022-12-01T15:50:29.642Z,16.83
2022-12-01T15:52:57.839Z,16.88
2022-12-01T15:55:47.087Z,19.05
2022-12-01T15:58:36.153Z,22.80
2022-12-01T16:01:06.512Z,22.20
2022-12-01T16:03:50.958Z,19.02
2022-12-01T16:06:17.891Z,19.42
2022-12-01T16:08:56.796Z,18.95
2022-12-01T16:11:23.652Z,20.60
2022-12-01T16:13:55.533Z,20.95
2022-12-01T16:16:35.918Z,20.17
2022-12-01T16:19:05.472Z,20.70
2022-12-01T16:21:41.924Z,18.20
2022-12-01T16:24:15.899Z,20.75
2022-12-01T16:26:56.853Z,20.63
2022-12-01T16:29:25.684Z,20.05
2022-12-01T16:32:18.898Z,21.27
2022-12-01T16:34:46.358Z,20.40
2022-12-01T16:37:24.035Z,19.98
2022-12-01T16:39:50.592Z,19.25
2022-12-01T16:42:20.370Z,22.00
2022-12-01T16:44:48.134Z,20.20
2022-12-01T16:47:19.325Z,23.08
2022-12-01T16:49:46.293Z,20.48
2022-12-01T16:52:42.950Z,21.70
2022-12-01T16:55:00.209Z,21.88
2022-12-01T16:57:26.517Z,30.52
2022-12-01T16:59:52.850Z,27.55
2022-12-01T17:02:19.265Z,22.83
2022-12-01T17:04:45.630Z,19.63
2022-12-01T17:07:12.009Z,23.48
2022-12-01T17:09:38.343Z,21.85
2022-12-01T17:12:05.027Z,20.77
2022-12-01T17:14:31.423Z,23.40
2022-12-01T17:17:00.857Z,19.95
2022-12-01T17:19:27.242Z,20.88
2022-12-01T17:21:55.294Z,25.13
2022-12-01T17:24:21.660Z,21.95
2022-12-01T17:26:48.010Z,21.60
2022-12-01T17:29:14.431Z,20.52
2022-12-01T17:31:40.802Z,22.00
2022-12-01T17:34:07.195Z,21.50
2022-12-01T17:36:33.535Z,20.70
2022-12-01T17:38:59.882Z,22.55
2022-12-01T17:41:32.097Z,23.20
2022-12-01T17:43:58.695Z,21.42
2022-12-01T17:46:25.576Z,24.70
2022-12-01T17:48:52.077Z,22.88
2022-12-01T17:51:18.420Z,24.40
2022-12-01T17:53:44.732Z,23.90
2022-12-01T17:56:13.681Z,22.73
2022-12-01T17:58:40.635Z,21.35
2022-12-01T18:01:14.597Z,24.92
2022-12-01T18:03:41.150Z,24.60
2022-12-01T18:06:07.887Z,27.08
2022-12-01T18:08:36.169Z,24.85
2022-12-01T18:11:07.673Z,21.13
2022-12-01T18:13:43.843Z,25.77
2022-12-01T18:16:17.275Z,24.10
2022-12-01T18:18:43.987Z,24.92
2022-12-01T18:21:13.002Z,26.85
2022-12-01T18:23:40.015Z,25.77
2022-12-01T18:26:15.144Z,23.80
2022-12-01T18:28:42.434Z,25.13
2022-12-01T18:31:15.029Z,23.20
2022-12-01T18:33:43.529Z,27.83
2022-12-01T18:36:13.402Z,25.27
2022-12-01T18:38:40.672Z,29.92
2022-12-01T18:41:07.553Z,25.42
2022-12-01T18:43:34.502Z,27.73
2022-12-01T18:46:03.172Z,27.90
2022-12-01T18:48:30.149Z,26.27
2022-12-01T18:50:59.391Z,24.90
2022-12-01T18:53:26.110Z,25.55
2022-12-01T18:55:52.458Z,27.85
2022-12-01T18:58:18.842Z,23.63
2022-12-01T19:00:45.687Z,29.85
2022-12-01T19:03:12.060Z,29.73
2022-12-01T19:05:39.516Z,26.05
2022-12-01T19:08:06.229Z,28.02
2022-12-01T19:10:33.229Z,27.55
2022-12-01T19:12:59.565Z,30.55
2022-12-01T19:15:25.893Z,26.73
2022-12-01T19:17:52.325Z,27.15
2022-12-01T19:20:18.630Z,25.15
2022-12-01T19:22:45.059Z,25.48
2022-12-01T19:25:12.374Z,26.83
2022-12-01T19:27:39.340Z,24.48
2022-12-01T19:30:06.897Z,22.10
2022-12-01T19:32:33.798Z,25.15
2022-12-01T19:35:00.189Z,25.40
2022-12-01T19:37:26.587Z,27.58
2022-12-01T19:39:53.139Z,28.55
2022-12-01T19:42:19.512Z,27.35
2022-12-01T19:44:45.921Z,29.65
2022-12-01T19:47:12.290Z,25.20
2022-12-01T19:49:38.638Z,26.80
2022-12-01T19:52:08.184Z,24.95
2022-12-01T19:54:35.311Z,25.52
2022-12-01T19:57:01.723Z,22.95
2022-12-01T19:59:28.043Z,26.85
2022-12-01T20:01:54.404Z,26.88
2022-12-01T20:04:20.840Z,28.15
2022-12-01T20:06:47.226Z,32.95
2022-12-01T20:09:13.585Z,28.98
2022-12-01T20:11:39.972Z,28.52
2022-12-01T20:14:09.914Z,28.30
2022-12-01T20:16:36.496Z,26.70
2022-12-01T20:19:04.503Z,29.27
2022-12-01T20:21:39.100Z,29.60
2022-12-01T20:24:07.385Z,29.87
2022-12-01T20:26:56.446Z,29.35
2022-12-01T20:29:28.307Z,28.23
2022-12-01T20:31:57.106Z,29.00
2022-12-01T20:34:31.304Z,29.15
2022-12-01T20:36:58.172Z,29.17
2022-12-01T20:39:24.883Z,28.77
2022-12-01T20:41:51.542Z,29.65
2022-12-01T20:44:18.231Z,29.38
2022-12-01T20:46:47.857Z,31.95
2022-12-01T20:49:15.891Z,29.88
2022-12-01T20:51:42.753Z,33.28
2022-12-01T20:54:29.745Z,32.33
2022-12-01T20:56:57.752Z,24.60
2022-12-01T20:59:24.697Z,30.63
2022-12-01T21:01:51.149Z,33.05
2022-12-01T21:04:17.770Z,29.13
2022-12-01T21:06:44.257Z,28.85
2022-12-01T21:09:12.460Z,25.02
2022-12-01T21:12:17.702Z,28.35
2022-12-01T21:14:48.923Z,28.48
2022-12-01T21:17:44.031Z,27.13
2022-12-01T21:20:25.034Z,31.50
2022-12-01T21:22:53.159Z,30.67
2022-12-01T21:25:22.681Z,28.65
2022-12-01T21:27:49.873Z,27.80
2022-12-01T21:30:21.854Z,30.05
2022-12-01T21:32:49.447Z,30.33
2022-12-01T21:35:19.790Z,35.75
2022-12-01T21:37:47.630Z,30.85
2022-12-01T21:40:22.270Z,27.73
2022-12-01T21:42:49.342Z,33.47
2022-12-01T21:45:31.945Z,30.10
2022-12-01T21:48:17.666Z,29.23
2022-12-01T21:50:48.124Z,28.80
2022-12-01T21:53:19.949Z,29.03
2022-12-01T21:55:47.505Z,29.88
2022-12-01T21:58:24.469Z,27.02
2022-12-01T22:00:53.639Z,28.90
2022-12-01T22:03:22.619Z,29.25
2022-12-01T22:06:13.551Z,27.35
2022-12-01T22:08:42.912Z,26.30
2022-12-01T22:11:18.592Z,30.98
2022-12-01T22:13:52.053Z,31.35
2022-12-01T22:16:22.382Z,39.50
2022-12-01T22:18:52.110Z,33.83
2022-12-01T22:21:21.422Z,28.35
2022-12-01T22:24:08.051Z,29.17
2022-12-01T22:26:37.360Z,32.30
2022-12-01T22:29:20.467Z,30.75
2022-12-01T22:31:47.919Z,31.73
2022-12-01T22:34:16.383Z,31.80
2022-12-01T22:36:42.848Z,30.75
2022-12-01T22:39:41.637Z,35.42
2022-12-01T22:42:13.340Z,34.70
2022-12-01T22:44:39.871Z,29.05
2022-12-01T22:47:09.445Z,30.15
2022-12-01T22:49:35.828Z,40.05
2022-12-01T22:52:14.011Z,28.02
2022-12-01T22:54:44.722Z,32.33
2022-12-01T22:57:16.196Z,28.95
2022-12-01T22:59:44.096Z,31.05
2022-12-01T23:02:21.122Z,29.25
2022-12-01T23:04:51.677Z,32.35
2022-12-01T23:07:33.223Z,32.30
2022-12-01T23:10:22.206Z,29.60
2022-12-01T23:12:51.312Z,34.83
2022-12-01T23:15:34.664Z,34.65
2022-12-01T23:18:16.251Z,35.92
2022-12-01T23:20:45.805Z,31.52
2022-12-01T23:23:17.535Z,32.13
2022-12-01T23:25:45.332Z,37.75
2022-12-01T23:28:12.619Z,31.55
2022-12-01T23:30:42.671Z,31.13
2022-12-01T23:33:08.945Z,29.73
2022-12-01T23:35:41.276Z,30.92
2022-12-01T23:38:15.808Z,36.60
2022-12-01T23:40:42.571Z,36.08
2022-12-01T23:43:15.777Z,33.13
2022-12-01T23:45:42.579Z,33.78
2022-12-01T23:48:21.722Z,34.17
2022-12-01T23:50:52.246Z,30.95
2022-12-01T23:53:30.935Z,34.17
2022-12-01T23:56:05.233Z,34.65
2022-12-01T23:58:31.583Z,30.30
